Wollongong, Australia
Current Conditions -  °F | °C
As of 12:00 PM on Sunday 21 Dec 2014 (Local Time) from YSSY Reporting Station
Few Clouds Few Clouds  
Wind Chill: 77°   Ceiling: Unl
Heat Index: 79°   Visibility: 6mi
Dew Point: 57°   Wind: 17mph
Humidity: 50%   Direction: 50°NE
Pressure: 30.06"   Gusts: NA
Location:  34.43°S, 150.9°E
Report Text: YSSY 210100Z 05015KT 9999 FEW035 25/14 Q1018 FM0200 04018KT CAVOK
Loading
Personal Weather Stations






























Interactive Weather Map New forecast layout! Learn more

10-Day Weather Forecast

Advertisements
Track Severe Weather on mobile